Time;durP1;ratioP1;P1;durP2;ratioP2;P2;SDS_P1;SDS_P2;PMS_P1;PMS_P2;Temp;Humidity;BMP_temperature;BMP_pressure;BME280_temperature;BME280_humidity;BME280_pressure;Samples;Min_cycle;Max_cycle;Signal;HPM_P1;HPM_P2
2022/11/09 00:01:34;;;;;;;2.40;1.10;;;12.30;99.90;;;;;;5133550;27;20125;-71
2022/11/09 00:04:01;;;;;;;4.20;1.23;;;11.40;99.90;;;;;;5115741;28;20547;-71
2022/11/09 00:06:28;;;;;;;2.97;1.10;;;12.30;99.90;;;;;;5133049;28;20043;-71
2022/11/09 00:08:54;;;;;;;1.83;0.90;;;12.40;99.90;;;;;;5133556;28;20054;-71
2022/11/09 00:11:20;;;;;;;3.70;0.90;;;12.40;99.90;;;;;;5115742;28;20045;-71
2022/11/09 00:13:47;;;;;;;4.03;0.90;;;12.50;99.90;;;;;;5132977;28;20051;-71
2022/11/09 00:16:16;;;;;;;4.30;1.10;;;12.50;99.90;;;;;;5133108;28;20046;-71
2022/11/09 00:18:46;;;;;;;3.22;1.00;;;12.50;99.90;;;;;;5134314;27;20046;-71
2022/11/09 00:21:20;;;;;;;3.55;1.13;;;12.60;99.90;;;;;;5115476;28;20051;-71
2022/11/09 00:23:46;;;;;;;3.67;1.10;;;12.80;99.90;;;;;;5134171;27;20478;-71
2022/11/09 00:26:14;;;;;;;3.00;1.15;;;12.90;99.90;;;;;;5133968;28;20050;-71
2022/11/09 00:28:40;;;;;;;5.53;1.20;;;12.60;99.90;;;;;;5134166;27;20047;-71
2022/11/09 00:31:18;;;;;;;5.07;1.20;;;12.60;99.90;;;;;;5133882;27;20054;-71
2022/11/09 00:33:48;;;;;;;3.95;1.48;;;12.60;99.90;;;;;;5123410;28;20542;-71
2022/11/09 00:36:13;;;;;;;7.05;1.45;;;12.60;99.90;;;;;;5095555;28;20087;-71
2022/11/09 00:38:39;;;;;;;5.93;1.30;;;12.50;99.90;;;;;;5095130;28;20079;-71
2022/11/09 00:41:08;;;;;;;2.85;1.20;;;12.50;99.90;;;;;;5113686;28;20047;-71
2022/11/09 00:43:34;;;;;;;3.35;1.13;;;12.50;99.90;;;;;;5113534;28;20047;-71
2022/11/09 00:45:59;;;;;;;2.85;1.00;;;12.80;99.90;;;;;;5116610;28;20155;-70
2022/11/09 00:48:32;;;;;;;3.75;1.20;;;12.50;99.90;;;;;;5116307;28;20079;-71
2022/11/09 00:50:58;;;;;;;4.20;1.10;;;12.50;99.90;;;;;;5116066;28;20050;-71
2022/11/09 00:53:25;;;;;;;4.03;1.05;;;12.60;99.90;;;;;;5116993;28;20175;-71
2022/11/09 00:56:10;;;;;;;3.03;0.93;;;12.60;99.90;;;;;;5117309;28;20055;-71
2022/11/09 00:58:37;;;;;;;3.13;0.88;;;12.50;99.90;;;;;;5117189;28;20047;-71
2022/11/09 01:01:10;;;;;;;2.20;1.05;;;12.50;99.90;;;;;;5099142;28;20052;-71
2022/11/09 01:03:36;;;;;;;5.70;1.00;;;12.50;99.90;;;;;;5116390;28;20044;-71
2022/11/09 01:06:02;;;;;;;2.08;1.00;;;12.50;99.90;;;;;;5116887;28;20055;-71
2022/11/09 01:08:28;;;;;;;5.30;1.48;;;12.40;99.90;;;;;;5116141;28;20134;-71
2022/11/09 01:10:54;;;;;;;2.50;1.10;;;12.50;99.90;;;;;;5116851;28;20483;-71
2022/11/09 01:13:20;;;;;;;2.40;1.10;;;12.40;99.90;;;;;;5117020;28;20104;-71
2022/11/09 01:15:51;;;;;;;3.22;1.10;;;12.40;99.90;;;;;;5116872;28;20047;-70
2022/11/09 01:18:19;;;;;;;4.90;1.20;;;12.40;99.90;;;;;;5116628;28;20487;-71
2022/11/09 01:20:47;;;;;;;2.83;1.00;;;12.40;99.90;;;;;;5115499;28;20495;-71
2022/11/09 01:23:14;;;;;;;3.92;1.17;;;12.40;99.90;;;;;;5098907;28;20066;-71
2022/11/09 01:25:40;;;;;;;2.80;1.10;;;12.50;99.90;;;;;;5115682;28;20048;-71
2022/11/09 01:28:07;;;;;;;2.15;1.25;;;12.30;99.90;;;;;;5116551;28;20079;-71
2022/11/09 01:30:35;;;;;;;2.53;1.02;;;12.30;99.90;;;;;;5098384;28;20066;-70
2022/11/09 01:33:04;;;;;;;5.22;1.40;;;12.40;99.90;;;;;;5116359;28;20050;-71
2022/11/09 01:35:36;;;;;;;2.15;1.02;;;12.20;99.90;;;;;;5080793;28;20499;-71
2022/11/09 01:38:04;;;;;;;3.80;1.00;;;12.40;99.90;;;;;;5116536;28;20130;-71
2022/11/09 01:40:31;;;;;;;2.58;1.10;;;12.30;99.90;;;;;;5115017;28;20062;-71
2022/11/09 01:42:58;;;;;;;4.45;1.02;;;12.30;99.90;;;;;;5098255;28;20142;-71
2022/11/09 01:45:28;;;;;;;2.92;1.20;;;12.30;99.90;;;;;;5115104;28;20047;-71
2022/11/09 01:48:17;;;;;;;4.40;1.20;;;12.30;99.90;;;;;;5098967;28;20051;-71
2022/11/09 01:50:51;;;;;;;6.20;1.13;;;12.30;99.90;;;;;;5115222;28;20043;-71
2022/11/09 01:53:29;;;;;;;3.97;1.10;;;12.60;99.90;;;;;;5115193;28;20487;-71
2022/11/09 01:56:05;;;;;;;4.25;1.00;;;12.40;99.90;;;;;;5114704;28;20051;-71
2022/11/09 01:58:44;;;;;;;2.63;1.30;;;12.40;99.90;;;;;;5098194;28;20055;-71
2022/11/09 02:01:12;;;;;;;3.22;1.20;;;12.50;99.90;;;;;;5116410;28;20043;-71
2022/11/09 02:03:46;;;;;;;1.95;1.05;;;12.30;99.90;;;;;;5115269;27;20047;-74
2022/11/09 02:06:15;;;;;;;4.20;1.15;;;12.30;99.90;;;;;;5097452;28;20100;-71
2022/11/09 02:08:43;;;;;;;4.97;1.17;;;12.30;99.90;;;;;;5115874;28;20410;-70
2022/11/09 02:11:11;;;;;;;2.95;1.17;;;12.40;99.90;;;;;;5097436;28;20040;-71
2022/11/09 02:13:45;;;;;;;4.10;1.00;;;12.30;99.90;;;;;;5114664;28;20484;-71
2022/11/09 02:16:13;;;;;;;4.25;1.10;;;12.30;99.90;;;;;;5114736;28;20055;-71
2022/11/09 02:18:54;;;;;;;2.67;1.02;;;12.30;99.90;;;;;;5097997;28;20047;-71
2022/11/09 02:21:23;;;;;;;4.47;1.33;;;12.30;99.90;;;;;;5115818;28;20055;-71
2022/11/09 02:23:49;;;;;;;2.38;1.10;;;12.30;99.90;;;;;;5115757;28;20047;-71
2022/11/09 02:26:33;;;;;;;5.32;1.10;;;12.50;99.90;;;;;;5115556;28;20055;-71
2022/11/09 02:29:01;;;;;;;1.83;1.13;;;12.30;99.90;;;;;;5113930;28;20048;-71
2022/11/09 02:31:37;;;;;;;4.13;1.20;;;12.30;99.90;;;;;;5097004;28;20123;-71
2022/11/09 02:34:10;;;;;;;4.97;1.08;;;12.20;99.90;;;;;;5114477;28;20047;-71
2022/11/09 02:36:35;;;;;;;5.75;0.98;;;12.40;99.90;;;;;;5097016;28;20056;-71
2022/11/09 02:39:02;;;;;;;3.88;1.00;;;12.20;99.90;;;;;;5114409;28;20073;-71
2022/11/09 02:41:31;;;;;;;5.07;1.50;;;12.10;99.90;;;;;;5097131;28;20094;-71
2022/11/09 02:43:59;;;;;;;2.80;1.00;;;12.10;99.90;;;;;;5114877;28;20109;-71
2022/11/09 02:46:33;;;;;;;2.72;1.15;;;12.40;99.90;;;;;;5115029;28;20113;-70
2022/11/09 02:49:00;;;;;;;3.00;1.17;;;12.10;99.90;;;;;;5114176;28;20081;-71
2022/11/09 02:51:26;;;;;;;3.15;1.00;;;12.20;99.90;;;;;;5096605;28;20484;-71
2022/11/09 02:53:52;;;;;;;3.67;1.13;;;12.10;99.90;;;;;;5079955;28;20055;-71
2022/11/09 02:56:18;;;;;;;6.32;1.13;;;12.10;99.90;;;;;;5079991;28;20058;-71
2022/11/09 02:58:44;;;;;;;4.28;1.40;;;12.20;99.90;;;;;;5096487;28;20051;-70
2022/11/09 03:01:10;;;;;;;3.55;0.95;;;12.20;99.90;;;;;;5096657;28;20036;-71
2022/11/09 03:03:36;;;;;;;4.88;1.10;;;12.10;99.90;;;;;;5113065;28;20052;-71
2022/11/09 03:06:01;;;;;;;3.40;1.10;;;12.10;99.90;;;;;;5095211;28;20097;-71
2022/11/09 03:08:27;;;;;;;4.90;1.30;;;12.20;99.90;;;;;;5096587;28;20043;-70
2022/11/09 03:10:53;;;;;;;2.50;1.10;;;12.10;99.90;;;;;;5096330;28;20044;-71
2022/11/09 03:13:18;;;;;;;3.60;1.10;;;12.00;99.90;;;;;;5114321;28;20049;-71
2022/11/09 03:15:44;;;;;;;4.22;1.27;;;12.20;99.90;;;;;;5114697;28;20044;-71
2022/11/09 03:18:10;;;;;;;4.15;0.98;;;12.10;99.90;;;;;;5096633;28;20047;-71
2022/11/09 03:20:36;;;;;;;5.18;1.25;;;12.20;99.90;;;;;;5095859;28;20052;-71
2022/11/09 03:23:02;;;;;;;4.20;1.15;;;12.20;99.90;;;;;;5114366;28;20545;-70
2022/11/09 03:25:27;;;;;;;4.38;1.00;;;12.20;99.90;;;;;;5095837;28;20535;-71
2022/11/09 03:28:02;;;;;;;4.80;1.17;;;12.10;99.90;;;;;;5113139;28;20133;-70
2022/11/09 03:30:28;;;;;;;2.60;0.90;;;12.10;99.90;;;;;;5114008;28;20122;-71
2022/11/09 03:32:58;;;;;;;5.22;1.15;;;12.10;99.90;;;;;;5112986;28;20142;-71
2022/11/09 03:35:24;;;;;;;4.88;0.90;;;12.20;99.90;;;;;;5112573;28;20043;-71
2022/11/09 03:37:50;;;;;;;7.68;1.20;;;12.00;99.90;;;;;;5095947;28;20100;-71
2022/11/09 03:40:16;;;;;;;4.10;0.80;;;12.10;99.90;;;;;;5096016;28;20051;-71
2022/11/09 03:42:46;;;;;;;4.38;0.88;;;12.10;99.90;;;;;;5096129;28;20131;-70
2022/11/09 03:45:13;;;;;;;2.72;0.90;;;12.00;99.90;;;;;;5113090;28;20267;-70
2022/11/09 03:47:43;;;;;;;4.40;1.38;;;12.10;99.90;;;;;;5078999;28;20098;-71
2022/11/09 03:50:10;;;;;;;6.40;0.90;;;12.20;99.90;;;;;;5113801;28;20108;-71
2022/11/09 03:52:36;;;;;;;4.93;0.90;;;12.10;99.90;;;;;;5095821;28;20051;-71
2022/11/09 03:55:03;;;;;;;2.88;0.80;;;12.30;99.90;;;;;;5095846;28;20177;-71
2022/11/09 03:57:28;;;;;;;7.07;1.10;;;12.10;99.90;;;;;;5113379;28;20048;-71
2022/11/09 03:59:56;;;;;;;4.30;0.88;;;12.20;99.90;;;;;;5113842;28;20050;-71
2022/11/09 04:02:21;;;;;;;5.43;0.93;;;12.10;99.90;;;;;;5112471;28;20047;-72
2022/11/09 04:04:47;;;;;;;3.28;0.85;;;12.10;99.90;;;;;;5112054;28;20050;-71
2022/11/09 04:07:13;;;;;;;4.75;1.23;;;12.00;99.90;;;;;;5095654;28;20052;-71
2022/11/09 04:09:39;;;;;;;5.00;1.00;;;12.00;99.90;;;;;;5113557;28;20126;-71
2022/11/09 04:12:04;;;;;;;6.60;0.80;;;12.00;99.90;;;;;;5112525;28;20202;-71
2022/11/09 04:14:30;;;;;;;8.18;0.93;;;12.10;99.90;;;;;;5113655;28;20055;-72
2022/11/09 04:16:56;;;;;;;4.45;0.90;;;12.00;99.90;;;;;;5112651;28;20105;-71
2022/11/09 04:19:22;;;;;;;3.55;1.02;;;12.00;99.90;;;;;;5117428;27;20135;-71
2022/11/09 04:21:48;;;;;;;5.55;1.00;;;12.40;99.90;;;;;;5138667;27;20047;-71
2022/11/09 04:24:14;;;;;;;6.35;1.00;;;12.30;99.90;;;;;;5120017;27;20559;-71
2022/11/09 04:26:43;;;;;;;4.38;0.70;;;11.90;99.90;;;;;;5138377;27;20043;-71
2022/11/09 04:29:09;;;;;;;2.13;0.70;;;12.10;99.90;;;;;;5138256;27;20043;-70
2022/11/09 04:31:35;;;;;;;3.33;0.85;;;12.00;99.90;;;;;;5102853;27;20043;-70
2022/11/09 04:34:01;;;;;;;4.22;1.05;;;12.00;99.90;;;;;;5085317;27;20050;-71
2022/11/09 04:36:26;;;;;;;3.45;0.90;;;11.90;99.90;;;;;;5119800;27;20104;-71
2022/11/09 04:38:52;;;;;;;6.15;1.02;;;12.00;99.90;;;;;;5102795;27;20100;-71
2022/11/09 04:41:18;;;;;;;5.22;1.08;;;11.90;99.90;;;;;;5138138;27;20100;-71
2022/11/09 04:43:43;;;;;;;5.78;1.02;;;11.90;99.90;;;;;;5102877;27;20054;-71
2022/11/09 04:46:09;;;;;;;3.80;0.80;;;12.10;99.90;;;;;;5138224;27;20075;-71
2022/11/09 04:48:35;;;;;;;4.78;0.98;;;12.20;99.90;;;;;;5119432;27;20424;-71
2022/11/09 04:51:02;;;;;;;6.40;1.00;;;11.90;99.90;;;;;;5102402;27;20091;-71
2022/11/09 04:53:28;;;;;;;3.55;0.90;;;11.80;99.90;;;;;;5119682;27;20078;-71
2022/11/09 04:55:55;;;;;;;5.63;1.00;;;12.00;99.90;;;;;;5137901;27;20047;-71
2022/11/09 04:58:21;;;;;;;6.82;0.95;;;11.90;99.90;;;;;;5137743;27;20047;-71
2022/11/09 05:00:47;;;;;;;4.38;1.02;;;11.90;99.90;;;;;;5119483;27;20043;-70
2022/11/09 05:03:13;;;;;;;5.63;1.23;;;12.30;99.90;;;;;;5119395;27;20051;-71
2022/11/09 05:05:40;;;;;;;4.75;1.00;;;12.00;99.90;;;;;;5136799;27;20039;-71
2022/11/09 05:08:07;;;;;;;4.75;1.58;;;11.90;99.90;;;;;;5137669;27;20058;-71
2022/11/09 05:10:34;;;;;;;2.90;0.90;;;12.00;99.90;;;;;;5119967;27;20054;-71
2022/11/09 05:13:01;;;;;;;3.53;1.05;;;12.00;99.90;;;;;;5102015;27;20051;-70
2022/11/09 05:15:27;;;;;;;3.70;0.80;;;11.90;99.90;;;;;;5137301;27;20053;-71
2022/11/09 05:17:53;;;;;;;2.83;1.08;;;12.10;99.90;;;;;;5119265;27;20043;-70
2022/11/09 05:20:19;;;;;;;4.82;0.90;;;12.20;99.90;;;;;;5118697;27;20062;-71
2022/11/09 05:25:29;;;;;;;6.00;0.90;;;12.10;99.90;;;;;;5118874;27;20047;-70
2022/11/09 05:27:54;;;;;;;2.88;0.70;;;12.00;99.90;;;;;;5137121;27;20095;-71
2022/11/09 05:30:20;;;;;;;4.38;0.98;;;12.10;99.90;;;;;;5136383;27;20082;-71
2022/11/09 05:32:46;;;;;;;5.15;1.00;;;12.30;99.90;;;;;;5101599;27;20130;-72
2022/11/09 05:35:12;;;;;;;3.00;0.90;;;12.10;99.90;;;;;;5118033;27;20059;-72
2022/11/09 05:37:38;;;;;;;3.47;1.00;;;12.00;99.90;;;;;;5136705;27;20095;-71
2022/11/09 05:40:05;;;;;;;3.85;1.00;;;12.30;99.90;;;;;;5119086;27;20039;-71
2022/11/09 05:42:31;;;;;;;4.88;1.10;;;11.90;99.90;;;;;;5136803;27;20050;-71
2022/11/09 05:44:57;;;;;;;3.97;0.98;;;12.10;99.90;;;;;;5136635;27;20055;-71
2022/11/09 05:47:22;;;;;;;3.47;1.02;;;12.10;99.90;;;;;;5136786;27;20126;-71
2022/11/09 05:49:48;;;;;;;3.40;1.10;;;12.00;99.90;;;;;;5118728;27;20503;-71
2022/11/09 05:52:14;;;;;;;2.72;0.93;;;12.00;99.90;;;;;;5118324;27;20061;-71
2022/11/09 05:54:40;;;;;;;6.45;1.20;;;12.20;99.90;;;;;;5136764;27;20532;-70
2022/11/09 05:57:05;;;;;;;3.50;1.05;;;12.10;99.90;;;;;;5101374;27;20047;-71
2022/11/09 05:59:31;;;;;;;5.93;1.00;;;12.10;99.90;;;;;;5084555;27;20505;-70
2022/11/09 06:01:57;;;;;;;4.35;1.30;;;12.10;99.90;;;;;;5118009;27;20051;-72
2022/11/09 06:04:23;;;;;;;5.50;1.00;;;12.00;99.90;;;;;;5100969;27;20050;-71
2022/11/09 06:06:48;;;;;;;7.60;1.20;;;12.10;99.90;;;;;;5118318;27;20126;-71
2022/11/09 06:09:14;;;;;;;3.35;1.00;;;12.20;99.90;;;;;;5118127;27;20039;-71
2022/11/09 06:11:39;;;;;;;3.83;0.90;;;12.10;99.90;;;;;;5117929;27;20063;-71
2022/11/09 06:14:05;;;;;;;5.60;0.98;;;12.40;99.90;;;;;;5101117;27;20035;-71
2022/11/09 06:16:31;;;;;;;7.05;1.00;;;12.30;99.90;;;;;;5101191;27;20078;-72
2022/11/09 06:18:56;;;;;;;2.28;0.80;;;12.10;99.90;;;;;;5117617;27;20047;-71
2022/11/09 06:21:22;;;;;;;3.03;0.88;;;12.10;99.90;;;;;;5100527;27;20130;-71
2022/11/09 06:23:48;;;;;;;2.35;0.80;;;12.20;99.90;;;;;;5117792;27;20516;-71
2022/11/09 06:26:13;;;;;;;6.05;1.70;;;12.10;99.90;;;;;;5100610;27;20046;-71
2022/11/09 06:28:40;;;;;;;3.10;0.82;;;12.10;99.90;;;;;;5135900;27;20047;-72
2022/11/09 06:31:07;;;;;;;4.53;1.05;;;12.10;99.90;;;;;;5136033;27;20039;-71
2022/11/09 06:33:34;;;;;;;6.35;0.80;;;12.40;99.90;;;;;;5100874;27;20050;-71
2022/11/09 06:36:01;;;;;;;3.03;0.95;;;12.10;99.90;;;;;;5100300;27;20059;-71
2022/11/09 06:38:27;;;;;;;5.30;0.80;;;12.00;99.90;;;;;;5135848;27;20394;-71
2022/11/09 06:40:54;;;;;;;5.15;1.10;;;12.00;99.90;;;;;;5099571;28;20039;-71
2022/11/09 06:43:20;;;;;;;2.58;0.80;;;11.90;99.90;;;;;;5100532;27;20050;-71
2022/11/09 06:45:46;;;;;;;5.15;1.02;;;12.00;99.90;;;;;;5117377;27;20181;-71
2022/11/09 06:48:12;;;;;;;5.10;1.00;;;11.90;99.90;;;;;;5135274;27;20102;-71
2022/11/09 06:50:38;;;;;;;4.68;1.20;;;11.90;99.90;;;;;;5100773;27;20046;-71
2022/11/09 06:53:06;;;;;;;5.22;1.05;;;11.80;99.90;;;;;;5135330;27;20035;-72
2022/11/09 06:55:33;;;;;;;5.20;1.08;;;12.00;99.90;;;;;;5135408;27;20042;-71
2022/11/09 06:58:03;;;;;;;3.85;1.40;;;11.80;99.90;;;;;;5117377;27;20400;-71
2022/11/09 07:00:29;;;;;;;3.08;0.90;;;11.80;99.90;;;;;;5099886;27;20457;-70
2022/11/09 07:02:55;;;;;;;4.05;0.90;;;11.80;99.90;;;;;;5083386;27;20146;-72
2022/11/09 07:05:21;;;;;;;5.32;0.82;;;11.90;99.90;;;;;;5134831;27;20043;-71
2022/11/09 07:07:46;;;;;;;5.72;1.00;;;11.80;99.90;;;;;;5117034;27;20054;-71
2022/11/09 07:10:12;;;;;;;2.88;0.70;;;11.80;99.90;;;;;;5135130;27;20047;-71
2022/11/09 07:12:38;;;;;;;2.33;0.80;;;11.80;99.90;;;;;;5135143;27;20043;-72
2022/11/09 07:15:04;;;;;;;4.53;1.25;;;11.80;99.90;;;;;;5116510;27;20047;-72
2022/11/09 07:17:31;;;;;;;6.03;0.90;;;11.80;99.90;;;;;;5135340;27;20129;-72
2022/11/09 07:19:57;;;;;;;2.53;0.88;;;11.70;99.90;;;;;;5116375;27;20108;-71
2022/11/09 07:22:23;;;;;;;4.03;0.90;;;11.80;99.90;;;;;;5117049;27;20051;-72
2022/11/09 07:24:48;;;;;;;4.65;0.77;;;11.80;99.90;;;;;;5116634;27;20043;-72
2022/11/09 07:27:15;;;;;;;2.20;0.85;;;11.90;99.90;;;;;;5099576;27;20138;-72
2022/11/09 07:29:41;;;;;;;4.60;0.90;;;11.80;99.90;;;;;;5099474;27;20141;-71
2022/11/09 07:32:06;;;;;;;5.25;0.95;;;11.80;99.90;;;;;;5099918;27;20126;-72
2022/11/09 07:34:32;;;;;;;5.03;0.90;;;11.70;99.90;;;;;;5082598;27;20439;-71
2022/11/09 07:36:58;;;;;;;4.07;0.90;;;11.70;99.90;;;;;;5116404;27;20057;-72
2022/11/09 07:39:23;;;;;;;4.15;0.80;;;11.80;99.90;;;;;;5116422;28;20050;-71
2022/11/09 07:41:49;;;;;;;3.67;0.80;;;11.80;99.90;;;;;;5134559;27;20039;-71
2022/11/09 07:44:17;;;;;;;8.95;1.15;;;11.80;99.90;;;;;;5134295;27;20039;-72
2022/11/09 07:46:52;;;;;;;5.18;0.80;;;11.80;99.90;;;;;;5116504;27;20058;-71
2022/11/09 07:49:18;;;;;;;5.22;0.80;;;11.80;99.90;;;;;;5099657;27;20066;-72
2022/11/09 07:51:43;;;;;;;4.05;1.10;;;11.90;99.90;;;;;;5116415;27;20043;-72
2022/11/09 07:54:09;;;;;;;5.03;1.10;;;11.80;99.90;;;;;;5099336;27;20055;-71
2022/11/09 07:56:36;;;;;;;4.45;0.93;;;11.80;99.90;;;;;;5116192;28;20053;-72
2022/11/09 07:59:02;;;;;;;2.95;0.90;;;11.90;99.90;;;;;;5116312;27;20058;-72
2022/11/09 08:01:28;;;;;;;4.38;0.88;;;11.90;99.90;;;;;;5134362;27;20039;-72
2022/11/09 08:03:54;;;;;;;6.40;0.90;;;11.90;99.90;;;;;;5134713;27;20566;-72
2022/11/09 08:06:21;;;;;;;6.22;0.90;;;11.80;99.90;;;;;;5133846;27;20505;-71
2022/11/09 08:08:48;;;;;;;7.13;1.10;;;12.00;99.90;;;;;;5099461;28;20059;-71
2022/11/09 08:11:14;;;;;;;5.90;0.98;;;11.90;99.90;;;;;;5099395;28;20130;-72
2022/11/09 08:13:40;;;;;;;4.28;1.00;;;11.90;99.90;;;;;;5116131;28;20058;-71
2022/11/09 08:16:06;;;;;;;4.72;0.88;;;11.90;99.90;;;;;;5116049;28;20039;-71
2022/11/09 08:18:31;;;;;;;4.28;0.90;;;12.00;99.90;;;;;;5134715;28;20406;-72
2022/11/09 08:21:02;;;;;;;3.50;1.08;;;12.10;99.90;;;;;;5134517;28;20534;-72
2022/11/09 08:23:28;;;;;;;4.68;1.20;;;11.90;99.90;;;;;;5099343;28;20494;-71
2022/11/09 08:25:53;;;;;;;3.47;0.82;;;11.80;99.90;;;;;;5115902;28;20043;-72
2022/11/09 08:28:19;;;;;;;6.47;1.20;;;11.80;99.90;;;;;;5099022;28;20054;-69
2022/11/09 08:30:53;;;;;;;4.63;1.13;;;12.00;99.90;;;;;;5115727;28;20050;-69
2022/11/09 08:33:18;;;;;;;6.53;0.98;;;12.00;99.90;;;;;;5134516;28;20074;-68
2022/11/09 08:35:44;;;;;;;4.97;1.20;;;12.10;99.90;;;;;;5098520;28;20490;-69
2022/11/09 08:38:10;;;;;;;7.07;1.08;;;12.30;99.90;;;;;;5134124;28;20096;-69
2022/11/09 08:40:35;;;;;;;5.60;1.23;;;12.20;99.90;;;;;;5115816;28;20047;-69
2022/11/09 08:43:06;;;;;;;7.60;1.58;;;12.60;99.90;;;;;;5134179;28;20126;-68
2022/11/09 08:45:35;;;;;;;6.35;1.08;;;12.40;99.90;;;;;;5116078;28;20049;-69
2022/11/09 08:48:01;;;;;;;6.95;1.48;;;12.00;99.90;;;;;;5134116;28;20512;-68
2022/11/09 08:50:28;;;;;;;3.28;1.17;;;12.30;99.90;;;;;;5116109;28;20355;-68
2022/11/09 08:52:54;;;;;;;5.35;1.35;;;12.40;99.90;;;;;;5115695;28;20367;-68
2022/11/09 08:55:21;;;;;;;6.82;1.23;;;12.40;99.90;;;;;;5099157;28;20183;-69
2022/11/09 08:57:47;;;;;;;5.38;1.17;;;12.40;99.90;;;;;;5115804;28;20157;-69
2022/11/09 09:00:13;;;;;;;6.82;1.20;;;12.30;99.90;;;;;;5134551;28;20077;-68
2022/11/09 09:02:39;;;;;;;3.47;0.90;;;12.40;99.90;;;;;;5115429;28;20177;-68
2022/11/09 09:05:05;;;;;;;5.57;1.20;;;12.40;99.90;;;;;;5117163;27;20125;-68
2022/11/09 09:07:31;;;;;;;7.88;1.10;;;12.40;99.90;;;;;;5119676;27;20047;-69
2022/11/09 09:09:56;;;;;;;4.93;1.30;;;12.50;99.90;;;;;;5119628;27;20035;-68
2022/11/09 09:12:22;;;;;;;5.88;1.20;;;12.40;99.90;;;;;;5119389;27;20039;-68
2022/11/09 09:14:48;;;;;;;8.27;1.15;;;12.50;99.90;;;;;;5102354;27;20121;-68
2022/11/09 09:17:14;;;;;;;6.72;1.10;;;12.50;99.90;;;;;;5137655;27;20046;-67
2022/11/09 09:19:40;;;;;;;5.03;1.20;;;12.50;99.90;;;;;;5137524;27;20038;-68
2022/11/09 09:22:05;;;;;;;6.18;1.55;;;12.50;99.90;;;;;;5119077;27;20126;-69
2022/11/09 09:24:31;;;;;;;6.55;1.10;;;12.50;99.90;;;;;;5119069;27;20050;-69
2022/11/09 09:26:57;;;;;;;5.15;1.00;;;12.60;99.90;;;;;;5137412;27;20042;-67
2022/11/09 09:29:22;;;;;;;6.88;1.13;;;12.60;99.90;;;;;;5126548;27;20092;-71
2022/11/09 09:31:48;;;;;;;5.57;1.30;;;12.90;99.90;;;;;;5147022;27;20488;-69
2022/11/09 09:34:14;;;;;;;5.53;1.00;;;12.60;99.90;;;;;;5129569;27;20043;-69
2022/11/09 09:36:40;;;;;;;5.32;0.98;;;12.70;99.90;;;;;;5127990;27;20046;-68
2022/11/09 09:39:05;;;;;;;7.00;1.48;;;12.70;99.90;;;;;;5147019;27;20499;-71
2022/11/09 09:41:40;;;;;;;5.80;1.10;;;12.80;99.90;;;;;;5129383;27;20035;-69
2022/11/09 09:44:11;;;;;;;6.32;1.23;;;12.70;99.90;;;;;;5147202;27;20054;-69
2022/11/09 09:47:06;;;;;;;6.22;1.83;;;12.70;99.90;;;;;;5144581;27;20435;-70
2022/11/09 09:49:35;;;;;;;4.47;1.45;;;12.90;99.90;;;;;;5131647;27;20054;-71
2022/11/09 09:52:22;;;;;;;7.35;1.20;;;12.90;99.90;;;;;;5128566;27;20039;-72
2022/11/09 09:55:19;;;;;;;6.15;1.25;;;12.90;99.90;;;;;;5111344;27;20081;-72
2022/11/09 09:57:50;;;;;;;5.38;1.30;;;12.90;99.90;;;;;;5100660;27;20082;-71
2022/11/09 10:00:24;;;;;;;4.78;1.60;;;12.80;99.90;;;;;;5147845;27;20066;-71
2022/11/09 10:02:51;;;;;;;4.43;1.35;;;13.00;99.90;;;;;;5147466;27;20511;-71
2022/11/09 10:05:18;;;;;;;5.97;1.20;;;13.00;99.90;;;;;;5147061;27;20034;-71
2022/11/09 10:08:03;;;;;;;5.72;1.80;;;13.10;99.90;;;;;;5129209;27;20466;-71
2022/11/09 10:11:08;;;;;;;4.90;1.60;;;13.10;99.90;;;;;;5146863;27;20035;-69
2022/11/09 10:14:02;;;;;;;6.00;1.50;;;13.10;99.90;;;;;;5131703;27;20130;-69
2022/11/09 10:16:45;;;;;;;8.98;1.92;;;13.10;99.90;;;;;;5146231;27;20487;-70
2022/11/09 10:19:34;;;;;;;3.53;1.45;;;13.20;99.90;;;;;;5147464;27;20042;-68
2022/11/09 10:22:36;;;;;;;5.90;1.58;;;13.20;99.90;;;;;;5126443;27;20043;-69
2022/11/09 10:25:20;;;;;;;6.47;1.50;;;13.20;99.90;;;;;;5144096;27;20479;-69
2022/11/09 10:28:00;;;;;;;6.70;1.80;;;13.30;99.90;;;;;;5112163;27;20039;-69
2022/11/09 10:30:27;;;;;;;7.05;1.45;;;13.40;99.90;;;;;;5124192;27;20047;-69
2022/11/09 10:32:57;;;;;;;7.72;1.88;;;13.30;99.90;;;;;;5124767;27;20047;-68
2022/11/09 10:35:34;;;;;;;4.55;1.45;;;13.30;99.90;;;;;;5143661;27;20139;-69
2022/11/09 10:38:00;;;;;;;7.10;1.88;;;13.50;99.90;;;;;;5109911;27;20393;-69
2022/11/09 10:40:28;;;;;;;7.82;1.63;;;13.40;99.90;;;;;;5109566;27;20129;-68
2022/11/09 10:42:58;;;;;;;3.40;1.20;;;13.30;99.90;;;;;;5128413;27;20694;-70
2022/11/09 10:45:36;;;;;;;6.75;1.45;;;13.40;99.90;;;;;;5128012;27;20133;-69
2022/11/09 10:48:04;;;;;;;8.75;1.77;;;13.40;99.90;;;;;;5127664;27;20375;-69
2022/11/09 10:50:34;;;;;;;4.22;1.58;;;13.40;99.90;;;;;;5143211;27;20113;-68
2022/11/09 10:53:18;;;;;;;6.30;1.58;;;13.60;99.90;;;;;;5127641;27;20047;-69
2022/11/09 10:56:02;;;;;;;;;;;13.40;99.90;;;;;;5106936;27;20116;-68
2022/11/09 10:58:46;;;;;;;5.93;1.58;;;13.40;99.90;;;;;;5145089;27;20429;-69
2022/11/09 11:01:22;;;;;;;7.10;1.42;;;13.50;99.90;;;;;;5123049;27;20041;-69
2022/11/09 11:03:52;;;;;;;4.03;1.60;;;13.50;99.90;;;;;;5127525;27;20188;-68
2022/11/09 11:06:21;;;;;;;7.50;1.50;;;13.40;99.90;;;;;;5144863;27;20047;-70
2022/11/09 11:09:10;;;;;;;7.32;1.30;;;13.70;99.90;;;;;;5126946;27;20039;-69
2022/11/09 11:11:38;;;;;;;5.22;1.20;;;13.60;99.90;;;;;;5127098;27;20394;-69
2022/11/09 11:14:14;;;;;;;4.88;1.40;;;13.80;99.90;;;;;;5127081;27;20050;-70
2022/11/09 11:16:42;;;;;;;7.78;1.27;;;13.50;99.90;;;;;;5125367;27;20803;-69
2022/11/09 11:19:35;;;;;;;6.97;1.65;;;13.50;99.90;;;;;;5126748;27;20047;-69
2022/11/09 11:22:12;;;;;;;8.82;1.40;;;13.50;99.90;;;;;;5124283;27;20051;-68
2022/11/09 11:24:51;;;;;;;4.75;1.33;;;14.30;99.90;;;;;;5145811;27;20058;-68
2022/11/09 11:27:36;;;;;;;7.22;2.22;;;13.40;99.90;;;;;;5145988;27;20043;-69
2022/11/09 11:30:17;;;;;;;7.18;1.27;;;13.50;99.90;;;;;;5143275;27;20046;-69
2022/11/09 11:32:43;;;;;;;5.53;1.40;;;13.50;99.90;;;;;;5127339;27;20062;-69
2022/11/09 11:35:36;;;;;;;7.45;1.63;;;13.60;99.90;;;;;;5144827;27;20382;-69
2022/11/09 11:38:20;;;;;;;7.90;1.33;;;13.50;99.90;;;;;;5116207;27;20508;-70
2022/11/09 11:40:55;;;;;;;5.90;1.33;;;13.40;99.90;;;;;;5135203;27;20046;-69
2022/11/09 11:43:40;;;;;;;5.25;1.60;;;13.50;99.90;;;;;;5144080;27;20100;-69
2022/11/09 11:46:30;;;;;;;5.82;1.58;;;13.60;99.90;;;;;;5125910;27;20078;-69
2022/11/09 11:49:02;;;;;;;5.45;1.42;;;13.50;99.90;;;;;;5127602;27;20042;-69
2022/11/09 11:51:31;;;;;;;6.50;1.65;;;13.50;99.90;;;;;;5126225;27;20070;-69
2022/11/09 11:54:19;;;;;;;3.70;1.38;;;13.60;99.90;;;;;;5127487;27;20031;-70
2022/11/09 11:56:52;;;;;;;6.63;1.60;;;13.70;99.90;;;;;;5124303;27;20073;-69
2022/11/09 11:59:39;;;;;;;6.18;1.42;;;13.60;99.90;;;;;;5110172;27;20348;-69
2022/11/09 12:02:44;;;;;;;5.32;1.67;;;14.40;99.90;;;;;;5124737;27;20547;-69
2022/11/09 12:05:44;;;;;;;5.57;1.55;;;13.40;99.90;;;;;;5124552;27;20050;-70
2022/11/09 12:08:30;;;;;;;6.35;1.20;;;13.60;99.90;;;;;;5142214;27;20117;-70
2022/11/09 12:11:17;;;;;;;5.63;1.15;;;13.60;99.90;;;;;;5145333;27;20466;-71
2022/11/09 12:14:04;;;;;;;6.63;1.50;;;13.60;99.90;;;;;;5127185;27;20034;-71
2022/11/09 12:16:53;;;;;;;5.70;1.40;;;13.60;99.90;;;;;;5109825;27;20055;-71
2022/11/09 12:19:19;;;;;;;6.05;2.08;;;13.60;99.90;;;;;;5085524;27;20054;-70
2022/11/09 12:21:54;;;;;;;6.90;1.48;;;13.60;99.90;;;;;;5144831;27;20374;-70
2022/11/09 12:24:26;;;;;;;5.68;1.30;;;13.40;99.90;;;;;;5124804;27;20055;-71
2022/11/09 12:27:07;;;;;;;4.10;1.10;;;13.50;99.90;;;;;;5146494;27;20042;-70
2022/11/09 12:29:57;;;;;;;4.68;1.38;;;13.60;99.90;;;;;;5144974;27;20410;-70
2022/11/09 12:32:44;;;;;;;8.57;1.35;;;13.70;99.90;;;;;;5124651;27;20050;-70
2022/11/09 12:35:39;;;;;;;9.13;1.30;;;13.50;99.90;;;;;;5125745;27;20043;-71
2022/11/09 12:38:20;;;;;;;3.55;0.90;;;13.70;99.90;;;;;;5127723;27;20147;-70
2022/11/09 12:41:13;;;;;;;5.65;0.90;;;13.40;99.90;;;;;;5111471;27;20043;-69
2022/11/09 12:43:54;;;;;;;4.05;0.90;;;13.50;99.90;;;;;;5146724;27;20058;-71
2022/11/09 12:46:28;;;;;;;6.97;1.00;;;13.50;99.90;;;;;;5148932;27;20039;-70
2022/11/09 12:48:58;;;;;;;5.97;1.20;;;13.40;99.90;;;;;;5113442;27;20058;-70
2022/11/09 12:51:24;;;;;;;6.35;1.10;;;13.50;99.90;;;;;;5127936;27;20046;-71
2022/11/09 12:53:50;;;;;;;4.07;1.00;;;13.40;99.90;;;;;;5129662;27;20356;-70
2022/11/09 12:56:24;;;;;;;7.60;1.40;;;13.40;99.90;;;;;;5110331;27;20059;-70
2022/11/09 12:58:50;;;;;;;6.13;1.00;;;13.50;99.90;;;;;;5129267;27;20113;-70
2022/11/09 13:01:34;;;;;;;3.75;1.00;;;13.40;99.90;;;;;;5130273;27;20508;-70
2022/11/09 13:04:02;;;;;;;6.47;1.25;;;13.40;99.90;;;;;;5130666;27;20053;-71
2022/11/09 13:06:32;;;;;;;4.93;1.10;;;13.50;99.90;;;;;;5147319;27;20047;-71